Time;durP1;ratioP1;P1;durP2;ratioP2;P2;SDS_P1;SDS_P2;PMS_P1;PMS_P2;Temp;Humidity;BMP_temperature;BMP_pressure;BME280_temperature;BME280_humidity;BME280_pressure;Samples;Min_cycle;Max_cycle;Signal;HPM_P1;HPM_P2
2022/11/15 00:02:13;;;;;;;;;61.33;48.00;;;;;4.60;100.00;100102.72;6309361;20;2866050;-56
2022/11/15 00:04:43;;;;;;;;;51.00;38.00;;;;;4.55;100.00;100107.31;6310214;20;2871223;-58
2022/11/15 00:07:12;;;;;;;;;67.00;48.00;;;;;4.39;100.00;100104.22;6308669;20;3640901;-54
2022/11/15 00:10:03;;;;;;;;;67.00;50.67;;;;;4.55;100.00;100116.16;6310554;20;3652454;-54
2022/11/15 00:12:32;;;;;;;;;57.00;43.00;;;;;4.69;100.00;100109.56;6311357;20;2871135;-57
2022/11/15 00:15:02;;;;;;;;;57.00;41.67;;;;;4.40;100.00;100101.53;6277254;20;3623191;-59
2022/11/15 00:17:30;;;;;;;;;54.00;43.00;;;;;4.69;100.00;100104.25;6307338;20;2859714;-56
2022/11/15 00:20:00;;;;;;;;;62.00;44.67;;;;;4.69;100.00;100112.22;6277705;20;3635670;-55
2022/11/15 00:22:33;;;;;;;;;65.00;43.00;;;;;4.72;100.00;100112.13;6308819;20;3646063;-58
2022/11/15 00:25:04;;;;;;;;;53.00;40.00;;;;;4.71;100.00;100118.34;6310278;20;3611772;-56
2022/11/15 00:27:33;;;;;;;;;70.00;51.00;;;;;4.58;100.00;100110.75;6308601;20;3649430;-56
2022/11/15 00:30:02;;;;;;;;;60.67;42.33;;;;;4.62;100.00;100108.88;6313084;20;3642992;-57
2022/11/15 00:32:32;;;;;;;;;60.00;47.00;;;;;4.56;100.00;100104.59;6279323;20;3623186;-57
2022/11/15 00:35:01;;;;;;;;;54.50;43.00;;;;;4.53;100.00;100104.72;6310146;20;2872244;-54
2022/11/15 00:37:30;;;;;;;;;48.00;40.50;;;;;4.55;100.00;100099.31;6272448;20;2857596;-56
2022/11/15 00:39:59;;;;;;;;;62.00;46.00;;;;;4.56;100.00;100095.78;6279302;20;3632563;-57
2022/11/15 00:42:28;;;;;;;;;52.00;40.00;;;;;4.54;100.00;100090.47;6308744;20;2854453;-54
2022/11/15 00:44:57;;;;;;;;;62.67;43.33;;;;;4.40;100.00;100092.69;6277925;20;3624242;-55
2022/11/15 00:47:27;;;;;;;;;53.33;39.33;;;;;4.50;100.00;100083.53;6308504;20;3614954;-57
2022/11/15 00:49:57;;;;;;;;;59.67;43.00;;;;;4.27;100.00;100075.38;6312302;20;2888875;-54
2022/11/15 00:52:27;;;;;;;;;50.67;40.00;;;;;4.56;100.00;100082.47;6306949;20;2855594;-56
2022/11/15 00:54:56;;;;;;;;;56.00;42.67;;;;;4.28;100.00;100077.09;6313244;20;2871430;-56
2022/11/15 00:57:25;;;;;;;;;49.33;40.67;;;;;4.46;100.00;100081.00;6310322;20;2862242;-55
2022/11/15 00:59:55;;;;;;;;;61.00;44.33;;;;;4.31;100.00;100074.34;6315107;20;3634721;-57
2022/11/15 01:02:24;;;;;;;;;57.50;41.00;;;;;4.67;100.00;100084.81;6313850;20;2864851;-57
2022/11/15 01:04:52;;;;;;;;;60.33;44.33;;;;;4.53;100.00;100079.88;6285216;20;3628438;-56
2022/11/15 01:07:22;;;;;;;;;62.00;43.00;;;;;4.53;100.00;100078.13;6283183;20;2883892;-58
2022/11/15 01:09:51;;;;;;;;;56.00;42.67;;;;;4.48;100.00;100076.53;6313201;20;3611682;-57
2022/11/15 01:12:21;;;;;;;;;63.33;49.00;;;;;4.62;100.00;100077.81;6316445;20;3641904;-56
2022/11/15 01:14:50;;;;;;;;;57.00;41.67;;;;;4.55;100.00;100070.06;6314540;20;2874212;-55
2022/11/15 01:17:20;;;;;;;;;58.67;41.33;;;;;4.52;100.00;100073.69;6311969;20;2878463;-56
2022/11/15 01:19:50;;;;;;;;;54.33;42.00;;;;;4.52;100.00;100070.16;6314359;20;3613770;-55
2022/11/15 01:22:19;;;;;;;;;63.67;44.00;;;;;4.48;100.00;100068.53;6315881;20;2890389;-55
2022/11/15 01:24:50;;;;;;;;;54.00;39.50;;;;;4.50;100.00;100053.38;6316120;20;2857593;-52
2022/11/15 01:27:18;;;;;;;;;58.00;42.00;;;;;4.64;100.00;100068.94;6274449;20;2487859;-57
2022/11/15 01:29:48;;;;;;;;;58.00;46.67;;;;;4.62;100.00;100058.34;6280463;20;2871288;-56
2022/11/15 01:32:18;;;;;;;;;57.33;44.67;;;;;4.61;100.00;100060.13;6315621;20;2867027;-56
2022/11/15 01:34:47;;;;;;;;;55.00;43.67;;;;;4.61;100.00;100065.44;6315822;20;2865931;-57
2022/11/15 01:37:16;;;;;;;;;52.67;42.67;;;;;4.62;100.00;100061.88;6311629;20;2860120;-56
2022/11/15 01:39:44;;;;;;;;;54.00;41.00;;;;;4.65;100.00;100071.53;6312184;20;2495064;-55
2022/11/15 01:42:14;;;;;;;;;57.67;40.33;;;;;4.65;100.00;100065.34;6281796;20;3623374;-55
2022/11/15 01:44:49;;;;;;;;;52.50;42.00;;;;;4.53;100.00;100046.22;6313530;20;2856570;-56
2022/11/15 01:47:40;;;;;;;;;58.67;44.67;;;;;4.82;100.00;100066.56;6280544;20;2874318;-53
2022/11/15 01:50:22;;;;;;;;;56.33;42.33;;;;;4.48;100.00;100058.78;6309713;20;2868231;-55
2022/11/15 01:52:52;;;;;;;;;42.67;27.33;;;;;4.34;100.00;100052.97;6312494;20;3629453;-56
2022/11/15 01:55:26;;;;;;;;;54.33;40.00;;;;;4.46;100.00;100049.97;6315840;20;3613893;-54
2022/11/15 01:58:02;;;;;;;;;52.67;37.67;;;;;4.38;100.00;100049.34;6309536;20;3626335;-56
2022/11/15 02:00:32;;;;;;;;;61.33;43.00;;;;;4.46;100.00;100049.97;6305462;20;2877596;-57
2022/11/15 02:03:02;;;;;;;;;48.50;39.00;;;;;4.56;100.00;100051.44;6312015;20;2851323;-53
2022/11/15 02:05:32;;;;;;;;;61.67;43.67;;;;;4.64;100.00;100034.38;6279952;20;2891153;-57
2022/11/15 02:08:02;;;;;;;;;58.67;42.67;;;;;4.49;100.00;100044.56;6310611;20;2880744;-56
2022/11/15 02:10:32;;;;;;;;;52.67;41.33;;;;;4.55;100.00;100044.34;6308720;20;2850491;-56
2022/11/15 02:13:02;;;;;;;;;54.00;42.50;;;;;4.72;100.00;100035.84;6311580;20;2860830;-56
2022/11/15 02:16:06;;;;;;;;;60.00;43.67;;;;;4.56;100.00;100034.59;6279826;20;2879432;-56
2022/11/15 02:18:44;;;;;;;;;50.33;36.33;;;;;4.71;100.00;100033.22;6309724;20;3617989;-57
2022/11/15 02:21:51;;;;;;;;;57.33;45.33;;;;;4.79;100.00;100029.44;6310809;20;2863886;-56
2022/11/15 02:24:59;;;;;;;;;56.33;44.00;;;;;4.62;100.00;100002.50;6311582;20;3635670;-58
2022/11/15 02:28:24;;;;;;;;;62.00;45.33;;;;;4.80;100.00;100019.66;6310344;20;3637851;-56
2022/11/15 02:31:40;;;;;;;;;62.33;47.00;;;;;4.73;100.00;100020.75;6309849;20;3611713;-57
2022/11/15 02:34:29;;;;;;;;;62.67;44.33;;;;;4.64;100.00;100021.94;6307308;20;3634727;-57
2022/11/15 02:37:11;;;;;;;;;65.67;45.67;;;;;4.85;100.00;100020.38;6311807;20;3637814;-56
2022/11/15 02:40:44;;;;;;;;;62.00;46.67;;;;;4.88;100.00;100030.91;6313962;20;2884646;-56
2022/11/15 02:49:31;;;;;;;;;60.33;46.00;;;;;4.84;100.00;100019.50;6312348;20;3633696;-53
2022/11/15 02:52:01;;;;;;;;;63.00;50.00;;;;;4.92;100.00;100021.88;6309159;20;3628349;-54
2022/11/15 02:54:33;;;;;;;;;63.33;48.00;;;;;4.81;100.00;100019.59;6309432;20;3628360;-55
2022/11/15 02:57:12;;;;;;;;;63.00;46.67;;;;;4.77;100.00;100012.63;6305301;20;2870255;-56
2022/11/15 03:00:09;;;;;;;;;63.00;47.33;;;;;4.69;100.00;100020.00;6306497;20;3625250;-56
2022/11/15 03:03:22;;;;;;;;;61.67;47.33;;;;;4.85;100.00;100012.38;6307145;20;3632567;-58
2022/11/15 03:06:45;;;;;;;;;63.33;48.67;;;;;4.71;100.00;100007.50;6307409;20;2886923;-58
2022/11/15 03:10:18;;;;;;;;;58.67;47.00;;;;;4.77;100.00;100007.31;6310881;20;2878406;-55
2022/11/15 03:13:32;;;;;;;;;68.00;49.00;;;;;4.58;100.00;99991.09;6308685;20;3640910;-57
2022/11/15 03:16:39;;;;;;;;;59.33;46.67;;;;;4.82;100.00;100005.38;6307799;20;3624306;-56
2022/11/15 03:19:27;;;;;;;;;63.00;48.00;;;;;4.75;100.00;100008.28;6309730;20;3637787;-55
2022/11/15 03:22:00;;;;;;;;;59.67;48.00;;;;;4.82;100.00;100004.53;6310042;20;3623199;-57
2022/11/15 03:24:35;;;;;;;;;63.33;48.00;;;;;4.85;100.00;100009.72;6309227;20;3640905;-56
2022/11/15 03:27:10;;;;;;;;;63.67;48.67;;;;;4.99;100.00;100010.13;6307181;20;3640924;-57
2022/11/15 03:29:48;;;;;;;;;68.67;50.00;;;;;4.96;100.00;100009.38;6311416;20;3643118;-56
2022/11/15 03:32:30;;;;;;;;;66.67;48.00;;;;;4.82;100.00;100000.06;6308344;20;3657644;-56
2022/11/15 03:35:20;;;;;;;;;69.00;50.67;;;;;4.76;100.00;99994.06;6309921;20;3638798;-54
2022/11/15 03:38:13;;;;;;;;;66.33;52.67;;;;;4.86;100.00;100007.94;6308744;20;2870104;-56
2022/11/15 03:40:53;;;;;;;;;66.33;50.00;;;;;4.84;100.00;100000.00;6311731;20;3631581;-52
2022/11/15 03:43:47;;;;;;;;;58.67;47.33;;;;;4.60;100.00;99991.03;6308272;20;2879507;-56
2022/11/15 03:46:42;;;;;;;;;67.00;50.33;;;;;4.63;100.00;99977.63;6308259;20;3635664;-57
2022/11/15 03:49:36;;;;;;;;;66.67;51.00;;;;;4.71;100.00;99990.69;6310105;20;3628439;-57
2022/11/15 03:52:06;;;;;;;;;69.33;53.00;;;;;4.78;100.00;99986.91;6309625;20;3640246;-55
2022/11/15 03:54:35;;;;;;;;;65.67;52.00;;;;;4.69;100.00;99973.94;6309681;20;2873326;-58
2022/11/15 03:57:05;;;;;;;;;57.67;43.67;;;;;4.74;100.00;99978.16;6309700;20;2872184;-55
2022/11/15 03:59:34;;;;;;;;;68.67;51.00;;;;;4.64;100.00;99973.22;6311006;20;3646085;-57
2022/11/15 04:02:04;;;;;;;;;64.00;48.33;;;;;4.69;100.00;99965.94;6309059;20;2891140;-57
2022/11/15 04:04:32;;;;;;;;;60.00;48.00;;;;;4.73;100.00;99959.59;6312667;20;2857560;-54
2022/11/15 04:07:02;;;;;;;;;64.00;49.00;;;;;4.50;100.00;99955.00;6278034;20;3636706;-55
2022/11/15 04:09:32;;;;;;;;;69.33;51.00;;;;;4.64;100.00;99943.94;6312097;20;3646082;-55
2022/11/15 04:12:01;;;;;;;;;67.00;51.00;;;;;4.62;100.00;99954.63;6311415;20;3624161;-55
2022/11/15 04:14:31;;;;;;;;;62.00;50.33;;;;;4.74;100.00;99953.34;6311469;20;3625299;-55
2022/11/15 04:17:00;;;;;;;;;66.67;51.00;;;;;4.78;100.00;99963.81;6309708;20;3635858;-56
2022/11/15 04:25:06;;;;;;;;;73.33;53.00;;;;;4.83;100.00;99963.69;6311888;20;3642948;-57
2022/11/15 04:27:36;;;;;;;;;71.00;53.00;;;;;4.75;100.00;99957.75;6309517;20;3641923;-57
2022/11/15 04:30:07;;;;;;;;;71.33;53.00;;;;;4.90;100.00;99964.31;6313255;20;3637839;-56
2022/11/15 04:32:36;;;;;;;;;71.00;52.00;;;;;4.74;100.00;99948.00;6315797;20;3641930;-56
2022/11/15 04:35:06;;;;;;;;;60.67;45.33;;;;;4.54;100.00;99946.91;6316631;20;2875507;-58
2022/11/15 04:37:36;;;;;;;;;62.33;51.00;;;;;4.61;100.00;99943.13;6314685;20;2862767;-56
2022/11/15 04:40:06;;;;;;;;;61.00;48.00;;;;;4.56;100.00;99938.88;6317300;20;2769054;-55
2022/11/15 04:42:35;;;;;;;;;71.00;56.00;;;;;4.59;100.00;99944.09;6279455;20;2869438;-56
2022/11/15 04:45:04;;;;;;;;;58.00;49.50;;;;;4.64;100.00;99941.28;6316461;20;2855623;-55
2022/11/15 04:47:34;;;;;;;;;63.67;51.33;;;;;4.71;100.00;99943.66;6281784;20;2875575;-53
2022/11/15 04:50:05;;;;;;;;;70.33;55.00;;;;;4.79;100.00;99940.75;6315135;20;2859693;-57
2022/11/15 04:52:34;;;;;;;;;63.33;50.00;;;;;4.68;100.00;99938.47;6313930;20;3635785;-58
2022/11/15 04:55:03;;;;;;;;;72.00;54.00;;;;;4.71;100.00;99937.47;6315500;20;2837784;-58
2022/11/15 04:57:36;;;;;;;;;59.00;47.50;;;;;4.77;100.00;99937.31;6279320;20;2848293;-59
2022/11/15 05:00:12;;;;;;;;;63.67;50.00;;;;;4.84;100.00;99933.50;6283247;20;2885932;-58
2022/11/15 05:05:29;;;;;;;;;59.67;48.00;;;;;4.75;100.00;99925.84;6315020;20;2875527;-56
2022/11/15 05:07:59;;;;;;;;;67.33;50.67;;;;;4.69;100.00;99918.06;6315213;20;3638831;-58
2022/11/15 05:10:28;;;;;;;;;64.00;49.33;;;;;4.37;100.00;99912.91;6314159;20;3644088;-59
2022/11/15 05:12:58;;;;;;;;;65.33;49.67;;;;;4.57;100.00;99924.66;6314602;20;3644043;-58
2022/11/15 05:15:27;;;;;;;;;72.67;52.00;;;;;4.59;100.00;99923.69;6314235;20;3646218;-56
2022/11/15 05:18:00;;;;;;;;;42.00;36.00;;;;;4.50;100.00;99917.78;6313454;20;2856921;-58
2022/11/15 05:20:29;;;;;;;;;64.00;49.67;;;;;4.48;100.00;99915.19;6280215;20;2872188;-57
2022/11/15 05:22:59;;;;;;;;;70.67;53.00;;;;;4.64;100.00;99928.00;6315582;20;3638856;-53
2022/11/15 05:25:28;;;;;;;;;65.50;52.00;;;;;4.77;100.00;99930.19;6313141;20;2862964;-58
2022/11/15 05:27:57;;;;;;;;;62.67;49.00;;;;;4.86;100.00;99936.97;6278468;20;2878651;-57
2022/11/15 05:30:27;;;;;;;;;65.67;50.33;;;;;4.93;100.00;99930.53;6310766;20;3632564;-56
2022/11/15 05:32:56;;;;;;;;;60.67;52.00;;;;;4.70;100.00;99931.31;6314972;20;3633544;-58
2022/11/15 05:35:41;;;;;;;;;63.00;49.00;;;;;4.73;100.00;99930.34;6312835;20;2873161;-57
2022/11/15 05:38:11;;;;;;;;;65.67;50.00;;;;;4.86;100.00;99929.00;6282151;20;2873329;-56
2022/11/15 05:40:40;;;;;;;;;69.00;52.67;;;;;4.62;100.00;99928.03;6310850;20;3622662;-58
2022/11/15 05:43:11;;;;;;;;;73.67;54.00;;;;;4.80;100.00;99926.56;6316502;20;3638883;-58
2022/11/15 05:45:41;;;;;;;;;79.33;58.67;;;;;4.61;100.00;99926.31;6310063;20;3644238;-58
2022/11/15 05:48:11;;;;;;;;;76.33;54.00;;;;;4.89;100.00;99925.34;6278822;20;3639866;-58
2022/11/15 05:50:46;;;;;;;;;77.00;58.33;;;;;4.55;100.00;99927.34;6312560;20;3636781;-58
2022/11/15 05:53:20;;;;;;;;;75.00;58.00;;;;;4.58;100.00;99932.59;6310738;20;3636066;-57
2022/11/15 05:55:50;;;;;;;;;63.00;48.67;;;;;4.61;100.00;99932.50;6312932;20;2877568;-57
2022/11/15 05:58:21;;;;;;;;;63.67;50.33;;;;;4.82;100.00;99927.38;6315760;20;3637861;-58
2022/11/15 06:00:50;;;;;;;;;69.00;52.00;;;;;5.00;100.00;99907.22;6309956;20;3640896;-59
2022/11/15 06:03:20;;;;;;;;;65.00;49.00;;;;;4.78;100.00;99901.78;6315236;20;3638835;-59
2022/11/15 06:05:49;;;;;;;;;63.67;49.67;;;;;4.84;100.00;99914.88;6314876;20;2869040;-59
2022/11/15 06:08:19;;;;;;;;;69.67;49.00;;;;;4.93;100.00;99921.69;6313801;20;3641949;-56
2022/11/15 06:10:48;;;;;;;;;68.00;52.00;;;;;4.95;100.00;99926.03;6310353;20;3643001;-58
2022/11/15 06:13:18;;;;;;;;;61.33;48.00;;;;;5.02;100.00;99924.00;6315092;20;3629530;-56
2022/11/15 06:15:47;;;;;;;;;62.33;49.33;;;;;4.85;100.00;99916.63;6310788;20;2869020;-58
2022/11/15 06:18:17;;;;;;;;;63.67;49.33;;;;;4.91;100.00;99913.75;6313595;20;3644029;-57
2022/11/15 06:20:46;;;;;;;;;67.33;54.00;;;;;4.92;100.00;99902.16;6309126;20;2874508;-58
2022/11/15 06:23:16;;;;;;;;;68.67;51.00;;;;;4.89;100.00;99906.72;6313146;20;3632651;-55
2022/11/15 06:25:45;;;;;;;;;62.67;52.67;;;;;4.95;100.00;99904.75;6312737;20;2866937;-56
2022/11/15 06:28:15;;;;;;;;;66.67;50.33;;;;;5.16;100.00;99912.88;6314804;20;3626801;-55
2022/11/15 06:30:44;;;;;;;;;66.00;51.33;;;;;5.09;100.00;99912.22;6311522;20;3637744;-58
2022/11/15 06:33:21;;;;;;;;;110.00;93.00;;;;;5.28;100.00;99912.44;6314193;20;4435709;-55
2022/11/15 06:35:50;;;;;;;;;75.67;60.00;;;;;5.18;100.00;99927.00;6313193;20;3608603;-55
2022/11/15 06:38:20;;;;;;;;;72.00;54.00;;;;;5.14;100.00;99918.25;6307084;20;3626330;-56
2022/11/15 06:40:49;;;;;;;;;72.33;55.00;;;;;5.23;100.00;99914.41;6311757;20;3638879;-58
2022/11/15 06:43:19;;;;;;;;;60.67;49.00;;;;;5.33;100.00;99914.94;6312891;20;2873325;-58
2022/11/15 06:45:48;;;;;;;;;62.67;47.00;;;;;5.27;100.00;99910.72;6312499;20;3646142;-57
2022/11/15 06:48:18;;;;;;;;;62.33;47.33;;;;;5.11;100.00;99910.41;6312876;20;3637821;-56
2022/11/15 06:50:56;;;;;;;;;68.00;52.67;;;;;4.96;100.00;99917.13;6312021;20;3628435;-55
2022/11/15 06:53:27;;;;;;;;;73.33;56.00;;;;;5.23;100.00;99925.91;6311662;20;2861837;-58
2022/11/15 06:56:03;;;;;;;;;66.33;52.00;;;;;5.07;100.00;99930.91;6310884;20;2883816;-55
2022/11/15 06:58:33;;;;;;;;;63.33;49.67;;;;;5.25;100.00;99928.53;6311779;20;3630476;-57
2022/11/15 07:01:10;;;;;;;;;61.67;48.00;;;;;5.28;100.00;99929.28;6308474;20;2873379;-57
2022/11/15 07:03:42;;;;;;;;;58.50;50.00;;;;;5.00;100.00;99934.72;6311900;20;2866976;-57
2022/11/15 07:06:11;;;;;;;;;62.50;50.00;;;;;5.04;100.00;99933.69;6281070;20;2873197;-55
2022/11/15 07:08:41;;;;;;;;;65.00;50.67;;;;;5.24;100.00;99917.00;6280623;20;2887898;-57
2022/11/15 07:11:11;;;;;;;;;56.67;46.33;;;;;5.27;100.00;99924.03;6311931;20;2867090;-57
2022/11/15 07:13:40;;;;;;;;;66.00;51.33;;;;;5.04;100.00;99924.84;6307543;20;3644425;-57
2022/11/15 07:16:11;;;;;;;;;64.33;50.00;;;;;5.20;100.00;99925.16;6310800;20;3623267;-57
2022/11/15 07:18:41;;;;;;;;;65.67;51.00;;;;;5.14;100.00;99920.94;6312668;20;2878697;-55
2022/11/15 07:21:12;;;;;;;;;66.33;53.00;;;;;5.45;100.00;99919.78;6312098;20;3633657;-58
2022/11/15 07:23:41;;;;;;;;;61.00;46.67;;;;;5.39;100.00;99918.22;6314405;20;3624240;-58
2022/11/15 07:26:11;;;;;;;;;57.67;46.67;;;;;5.53;100.00;99933.72;6312747;20;2877465;-57
2022/11/15 07:28:40;;;;;;;;;59.33;44.67;;;;;5.60;100.00;99926.34;6312434;20;3631602;-56
2022/11/15 07:31:11;;;;;;;;;62.67;48.33;;;;;5.49;100.00;99927.63;6311479;20;2868133;-58
2022/11/15 07:33:40;;;;;;;;;62.67;48.67;;;;;5.22;100.00;99929.50;6313362;20;3625254;-57
2022/11/15 07:36:10;;;;;;;;;61.67;50.67;;;;;5.14;100.00;99925.38;6312915;20;2870147;-56
2022/11/15 07:38:39;;;;;;;;;59.67;47.33;;;;;5.42;100.00;99922.56;6312169;20;3619064;-59
2022/11/15 07:41:11;;;;;;;;;64.00;50.67;;;;;5.38;100.00;99919.16;6309875;20;3630608;-57
2022/11/15 07:43:40;;;;;;;;;71.50;54.50;;;;;5.58;100.00;99917.53;6313464;20;2876346;-58
2022/11/15 07:46:09;;;;;;;;;59.33;42.67;;;;;5.60;100.00;99913.91;6278657;20;3625440;-56
2022/11/15 07:48:40;;;;;;;;;62.33;49.67;;;;;5.76;100.00;99898.19;6311111;20;3623191;-58
2022/11/15 07:51:16;;;;;;;;;66.00;52.67;;;;;5.81;100.00;99896.22;6310719;20;2865911;-58
2022/11/15 07:53:46;;;;;;;;;60.00;48.67;;;;;5.70;100.00;99911.78;6303085;20;2855523;-54
2022/11/15 07:56:15;;;;;;;;;67.00;50.00;;;;;5.79;100.00;99914.06;6311214;20;3619010;-56
2022/11/15 07:58:46;;;;;;;;;69.00;55.00;;;;;6.18;100.00;99915.28;6308987;20;2872240;-58
2022/11/15 08:01:16;;;;;;;;;67.00;51.00;;;;;6.02;100.00;99912.34;6311719;20;3628446;-57
2022/11/15 08:03:45;;;;;;;;;60.00;48.00;;;;;5.83;100.00;99902.38;6311008;20;2863869;-58
2022/11/15 08:06:14;;;;;;;;;59.00;47.00;;;;;5.87;100.00;99896.03;6282734;20;2857571;-57
2022/11/15 08:08:43;;;;;;;;;61.33;49.00;;;;;5.99;100.00;99881.34;6280540;20;2873345;-58
2022/11/15 08:11:12;;;;;;;;;54.00;41.67;;;;;6.14;100.00;99888.75;6317945;20;3630520;-56
2022/11/15 08:13:41;;;;;;;;;68.00;53.67;;;;;5.89;100.00;99891.47;6276690;20;3632527;-57
2022/11/15 08:16:11;;;;;;;;;56.00;46.50;;;;;5.90;100.00;99892.38;6310219;20;2860864;-58
2022/11/15 08:18:41;;;;;;;;;61.33;46.67;;;;;5.98;100.00;99886.75;6281062;20;3630646;-57
2022/11/15 08:21:20;;;;;;;;;59.67;48.67;;;;;6.20;100.00;99884.97;6314482;20;2853417;-59
2022/11/15 08:23:49;;;;;;;;;69.00;55.33;;;;;6.09;100.00;99873.88;6314123;20;2870174;-59
2022/11/15 08:26:19;;;;;;;;;66.00;52.67;;;;;6.10;100.00;99864.94;6311895;20;3627401;-60
2022/11/15 08:28:48;;;;;;;;;61.33;45.00;;;;;6.11;100.00;99877.34;6314778;20;3632563;-60
2022/11/15 08:31:19;;;;;;;;;58.67;46.67;;;;;6.14;100.00;99872.75;6311514;20;3614849;-59
2022/11/15 08:33:48;;;;;;;;;66.00;50.67;;;;;6.33;100.00;99867.53;6313798;20;3634622;-60
2022/11/15 08:36:18;;;;;;;;;68.33;51.33;;;;;6.57;100.00;99868.31;6308301;20;3650347;-60
2022/11/15 08:38:47;;;;;;;;;59.00;49.00;;;;;6.21;100.00;99870.69;6312071;20;2853502;-60
2022/11/15 08:41:37;;;;;;;;;64.00;51.00;;;;;6.54;100.00;99871.09;6279685;20;2873431;-59
2022/11/15 08:44:07;;;;;;;;;71.67;52.67;;;;;6.27;100.00;99865.13;6314599;20;3645037;-60
2022/11/15 08:46:36;;;;;;;;;65.33;52.67;;;;;6.42;100.00;99849.41;6313782;20;3616403;-59
2022/11/15 08:49:05;;;;;;;;;60.00;49.50;;;;;6.74;100.00;99851.59;6312231;20;2853386;-60
2022/11/15 08:51:35;;;;;;;;;62.00;51.00;;;;;6.55;100.00;99858.63;6277513;20;3617971;-59
2022/11/15 08:54:04;;;;;;;;;66.33;52.67;;;;;6.32;100.00;99865.81;6310109;20;3635759;-59
2022/11/15 08:56:34;;;;;;;;;66.67;53.00;;;;;6.30;100.00;99874.81;6306484;20;3625281;-59
2022/11/15 08:59:03;;;;;;;;;82.50;66.00;;;;;6.40;100.00;99872.59;6307032;20;4403373;-60
2022/11/15 09:01:33;;;;;;;;;97.33;84.67;;;;;6.10;100.00;99843.63;6306667;20;3675374;-59
2022/11/15 09:04:03;;;;;;;;;69.00;53.33;;;;;5.93;100.00;99863.81;6279547;20;3631560;-60
2022/11/15 09:06:33;;;;;;;;;66.33;52.00;;;;;6.19;100.00;99861.91;6311583;20;3644022;-60
2022/11/15 09:09:02;;;;;;;;;125.00;95.50;;;;;6.19;100.00;99861.03;6309187;20;1949434;-59
2022/11/15 09:11:32;;;;;;;;;71.67;54.67;;;;;6.34;100.00;99857.72;6281515;20;3631547;-59
2022/11/15 09:14:02;;;;;;;;;115.00;98.25;;;;;6.40;100.00;99861.94;6317031;20;4458736;-60
2022/11/15 09:16:32;;;;;;;;;83.67;63.67;;;;;6.34;100.00;99858.59;6318843;20;3645064;-59
2022/11/15 09:19:03;;;;;;;;;428.00;364.80;;;;;6.54;100.00;99862.25;6318074;20;4535738;-60
2022/11/15 09:21:40;;;;;;;;;72.67;53.33;;;;;6.49;100.00;99858.91;6321429;20;3635651;-60
2022/11/15 09:24:11;;;;;;;;;418.80;327.80;;;;;6.74;100.00;99856.03;6319983;20;4520046;-59
2022/11/15 09:26:43;;;;;;;;;443.13;376.38;;;;;6.74;100.00;99842.69;6311133;20;3766915;-59
2022/11/15 09:29:12;;;;;;;;;73.33;58.00;;;;;6.48;100.00;99835.84;6286044;20;2869090;-60
2022/11/15 09:31:40;;;;;;;;;221.00;152.50;;;;;6.35;100.00;99827.47;6313549;20;1940977;-59
2022/11/15 09:34:09;;;;;;;;;76.00;59.00;;;;;6.59;100.00;99830.91;6287819;20;3625310;-59
2022/11/15 09:36:40;;;;;;;;;110.25;88.75;;;;;6.78;100.00;99821.16;6284190;20;3709749;-60
2022/11/15 09:39:08;;;;;;;;;133.00;118.00;;;;;6.89;100.00;99827.81;6312539;20;1954638;-60
2022/11/15 09:42:02;;;;;;;;;80.33;60.33;;;;;6.90;100.00;99832.22;6286724;20;3629418;-60
2022/11/15 09:44:48;;;;;;;;;71.00;56.33;;;;;6.51;100.00;99825.91;6318865;20;3623421;-59
2022/11/15 09:47:43;;;;;;;;;59.00;46.33;;;;;6.81;100.00;99815.69;6315793;20;2858830;-60
2022/11/15 09:50:28;;;;;;;;;75.33;59.33;;;;;6.85;100.00;99812.91;6314255;20;2865087;-59
2022/11/15 09:52:58;;;;;;;;;77.67;58.00;;;;;6.79;100.00;99812.25;6315406;20;3649246;-59
2022/11/15 09:56:05;;;;;;;;;65.50;53.00;;;;;6.61;100.00;99821.03;6314809;20;2873411;-60
2022/11/15 09:59:27;;;;;;;;;71.00;53.33;;;;;6.55;100.00;99803.47;6313686;20;3641929;-59
2022/11/15 10:02:09;;;;;;;;;67.00;50.67;;;;;6.73;100.00;99804.47;6314420;20;2881481;-60
2022/11/15 10:04:40;;;;;;;;;66.67;51.00;;;;;6.65;100.00;99798.63;6319433;20;3637752;-60
2022/11/15 10:07:27;;;;;;;;;67.33;51.67;;;;;6.43;100.00;99797.81;6316312;20;3639856;-60
2022/11/15 10:10:32;;;;;;;;;67.00;52.33;;;;;6.42;100.00;99796.06;6316939;20;3634612;-60
2022/11/15 10:13:02;;;;;;;;;75.00;55.67;;;;;6.59;100.00;99790.88;6316521;20;3617986;-60
2022/11/15 10:15:32;;;;;;;;;74.00;56.00;;;;;6.66;100.00;99795.03;6315842;20;3636715;-59
2022/11/15 10:18:49;;;;;;;;;69.33;52.00;;;;;6.39;100.00;99786.41;6312136;20;3631507;-60
2022/11/15 10:21:34;;;;;;;;;73.33;56.33;;;;;6.87;100.00;99787.00;6315628;20;3636694;-60
2022/11/15 10:24:12;;;;;;;;;75.50;59.50;;;;;6.56;100.00;99794.56;6319547;20;2860741;-60
2022/11/15 10:26:49;;;;;;;;;74.33;57.00;;;;;6.58;100.00;99782.03;6281874;20;3630485;-61
2022/11/15 10:29:21;;;;;;;;;77.67;59.67;;;;;6.86;100.00;99774.59;6314386;20;3626312;-60
2022/11/15 10:31:55;;;;;;;;;73.67;56.33;;;;;6.84;100.00;99776.47;6313614;20;3636155;-60
2022/11/15 10:34:26;;;;;;;;;74.33;56.67;;;;;6.75;100.00;99770.59;6316259;20;3617955;-60
2022/11/15 10:37:03;;;;;;;;;64.00;52.00;;;;;6.88;100.00;99767.38;6317645;20;3620023;-60
2022/11/15 10:39:36;;;;;;;;;95.00;81.00;;;;;6.79;100.00;99764.22;6314446;20;4428458;-60
2022/11/15 10:42:28;;;;;;;;;76.00;57.67;;;;;6.68;100.00;99761.13;6310651;20;3631625;-61
2022/11/15 10:44:57;;;;;;;;;81.33;60.33;;;;;6.86;100.00;99758.59;6313997;20;3640285;-60
2022/11/15 10:47:31;;;;;;;;;73.00;54.33;;;;;6.94;100.00;99741.28;6279518;20;3629504;-61
2022/11/15 10:50:32;;;;;;;;;81.00;61.75;;;;;6.65;100.00;99750.59;6318800;20;3639833;-60
2022/11/15 10:53:02;;;;;;;;;82.67;59.67;;;;;6.75;100.00;99743.91;6314616;20;3644017;-60
2022/11/15 10:55:34;;;;;;;;;86.33;62.00;;;;;6.87;100.00;99741.63;6314393;20;3656937;-60
2022/11/15 10:58:35;;;;;;;;;86.00;66.33;;;;;6.92;100.00;99736.94;6314334;20;3649301;-60
2022/11/15 11:01:18;;;;;;;;;80.33;60.00;;;;;7.23;100.00;99731.91;6316461;20;3640980;-60
2022/11/15 11:04:08;;;;;;;;;98.75;77.00;;;;;6.85;100.00;99738.19;6319945;20;4436690;-60
2022/11/15 11:06:59;;;;;;;;;105.50;88.50;;;;;6.92;100.00;99726.25;6307962;20;1946249;-61
2022/11/15 11:09:32;;;;;;;;;68.67;52.00;;;;;7.16;100.00;99729.59;6282689;20;3632705;-60
2022/11/15 11:12:05;;;;;;;;;69.33;54.67;;;;;7.10;100.00;99724.56;6313711;20;3631283;-61
2022/11/15 11:14:38;;;;;;;;;90.33;67.00;;;;;7.28;100.00;99715.69;6312919;20;3662755;-60
2022/11/15 11:17:54;;;;;;;;;64.67;51.33;;;;;7.07;100.00;99709.53;6275911;20;2874762;-60
2022/11/15 11:20:51;;;;;;;;;82.67;60.67;;;;;7.29;100.00;99712.06;6317316;20;3640907;-60
2022/11/15 11:23:32;;;;;;;;;83.67;61.33;;;;;7.14;100.00;99705.66;6280679;20;3645128;-60
2022/11/15 11:26:24;;;;;;;;;75.00;55.33;;;;;7.04;100.00;99691.00;6280254;20;3633626;-61
2022/11/15 11:29:48;;;;;;;;;75.33;55.00;;;;;6.75;100.00;99689.69;6314151;20;3633639;-60
2022/11/15 11:33:10;;;;;;;;;92.50;78.00;;;;;7.06;100.00;99690.91;6313050;20;4429404;-59
2022/11/15 11:36:43;;;;;;;;;90.67;72.67;;;;;6.67;100.00;99681.19;6311864;20;3660105;-60
2022/11/15 11:39:41;;;;;;;;;85.67;63.00;;;;;6.72;100.00;99682.69;6311658;20;3649218;-61
2022/11/15 11:42:42;;;;;;;;;96.50;77.50;;;;;7.06;100.00;99685.56;6315624;20;4434648;-60
2022/11/15 11:45:21;;;;;;;;;96.50;88.50;;;;;6.95;100.00;99676.28;6309586;20;1934700;-60
2022/11/15 11:48:30;;;;;;;;;91.00;75.00;;;;;6.87;100.00;99675.75;6283078;20;4410849;-59
2022/11/15 11:51:28;;;;;;;;;150.00;125.00;;;;;7.07;100.00;99672.16;6299622;20;1953522;-54
2022/11/15 11:54:13;;;;;;;;;73.67;56.00;;;;;7.04;100.00;99662.50;6280875;20;3630503;-60
2022/11/15 11:56:45;;;;;;;;;103.75;85.00;;;;;6.96;100.00;99659.34;6312718;20;4445085;-60